createdAt,value
2022-12-20T00:01:57.114Z,9.87
2022-12-20T00:04:27.699Z,9.17
2022-12-20T00:06:57.033Z,9.60
2022-12-20T00:09:30.155Z,9.30
2022-12-20T00:11:59.045Z,9.83
2022-12-20T00:14:28.210Z,8.80
2022-12-20T00:17:00.554Z,10.03
2022-12-20T00:19:32.289Z,8.77
2022-12-20T00:22:00.572Z,10.00
2022-12-20T00:24:31.058Z,8.93
2022-12-20T00:26:59.450Z,9.40
2022-12-20T00:29:28.695Z,9.50
2022-12-20T00:31:57.337Z,8.77
2022-12-20T00:34:26.517Z,9.67
2022-12-20T00:36:57.258Z,9.20
2022-12-20T00:39:26.468Z,9.47
2022-12-20T00:41:56.008Z,8.87
2022-12-20T00:44:24.656Z,9.53
2022-12-20T00:46:54.188Z,9.83
2022-12-20T00:49:23.407Z,10.33
2022-12-20T00:51:52.749Z,9.40
2022-12-20T00:54:23.214Z,8.33
2022-12-20T00:56:53.236Z,8.73
2022-12-20T00:59:22.293Z,8.43
2022-12-20T01:01:51.715Z,8.23
2022-12-20T01:04:21.203Z,8.10
2022-12-20T01:06:50.281Z,6.03
2022-12-20T01:09:20.285Z,6.07
2022-12-20T01:11:51.472Z,6.03
2022-12-20T01:14:20.307Z,5.87
2022-12-20T01:16:50.573Z,5.03
2022-12-20T01:19:20.993Z,4.57
2022-12-20T01:21:49.599Z,4.00
2022-12-20T01:24:21.101Z,4.30
2022-12-20T01:26:52.504Z,4.40
2022-12-20T01:29:21.897Z,4.03
2022-12-20T01:31:54.215Z,4.30
2022-12-20T01:34:23.515Z,4.27
2022-12-20T01:36:52.894Z,3.73
2022-12-20T01:39:30.544Z,3.47
2022-12-20T01:42:02.455Z,4.13
2022-12-20T01:45:01.657Z,3.70
2022-12-20T01:47:34.154Z,3.57
2022-12-20T01:50:06.865Z,3.10
2022-12-20T01:52:38.879Z,2.93
2022-12-20T01:55:16.969Z,2.50
2022-12-20T01:57:51.802Z,3.03
2022-12-20T02:00:21.755Z,3.07
2022-12-20T02:02:52.902Z,2.93
2022-12-20T02:05:24.680Z,2.43
2022-12-20T02:07:56.076Z,2.57
2022-12-20T02:10:31.013Z,2.67
2022-12-20T02:13:17.296Z,2.60
2022-12-20T02:15:55.607Z,2.77
2022-12-20T02:18:27.816Z,2.83
2022-12-20T02:21:24.477Z,2.60
2022-12-20T02:24:28.845Z,2.20
2022-12-20T02:27:32.446Z,2.30
2022-12-20T02:30:18.137Z,2.07
2022-12-20T02:32:53.750Z,2.30
2022-12-20T02:35:27.437Z,2.90
2022-12-20T02:37:57.820Z,2.63
2022-12-20T02:40:30.976Z,2.63
2022-12-20T02:43:05.047Z,1.87
2022-12-20T02:45:40.713Z,2.60
2022-12-20T02:48:14.472Z,2.03
2022-12-20T02:50:49.598Z,2.57
2022-12-20T02:53:19.418Z,2.20
2022-12-20T02:55:53.037Z,2.43
2022-12-20T02:58:30.614Z,2.13
2022-12-20T03:01:05.629Z,2.13
2022-12-20T03:03:35.203Z,2.00
2022-12-20T03:06:05.448Z,2.20
2022-12-20T03:08:37.001Z,2.23
2022-12-20T03:11:06.082Z,2.20
2022-12-20T03:13:35.216Z,2.10
2022-12-20T03:16:06.278Z,2.27
2022-12-20T03:18:36.204Z,2.13
2022-12-20T03:21:06.128Z,1.93
2022-12-20T03:23:35.467Z,2.37
2022-12-20T03:26:04.587Z,2.20
2022-12-20T03:28:34.896Z,1.87
2022-12-20T03:31:07.234Z,1.93
2022-12-20T03:33:37.167Z,1.93
2022-12-20T03:36:06.134Z,1.63
2022-12-20T03:38:35.104Z,2.17
2022-12-20T03:41:03.935Z,2.57
2022-12-20T03:43:34.042Z,2.10
2022-12-20T03:46:03.239Z,2.10
2022-12-20T03:48:35.209Z,2.03
2022-12-20T03:51:05.091Z,2.00
2022-12-20T03:53:35.170Z,1.80
2022-12-20T03:56:04.339Z,1.90
2022-12-20T03:58:34.021Z,1.80
2022-12-20T04:01:03.725Z,2.03
2022-12-20T04:03:35.405Z,2.20
2022-12-20T04:06:04.114Z,2.07
2022-12-20T04:08:32.863Z,1.93
2022-12-20T04:11:20.049Z,2.27
2022-12-20T04:13:50.202Z,1.60
2022-12-20T04:16:21.554Z,1.67
2022-12-20T04:18:54.303Z,2.27
2022-12-20T04:21:25.172Z,2.20
2022-12-20T04:23:53.891Z,2.40
2022-12-20T04:26:22.860Z,2.63
2022-12-20T04:28:53.023Z,2.00
2022-12-20T04:31:24.439Z,2.40
2022-12-20T04:33:55.377Z,2.90
2022-12-20T04:36:24.372Z,2.90
2022-12-20T04:38:54.172Z,2.20
2022-12-20T04:41:27.706Z,2.23
2022-12-20T04:43:59.471Z,2.20
2022-12-20T04:46:28.981Z,2.33
2022-12-20T04:49:03.910Z,1.80
2022-12-20T04:54:28.285Z,1.90
2022-12-20T04:57:03.853Z,1.90
2022-12-20T04:59:44.085Z,2.00
2022-12-20T05:02:12.979Z,2.30
2022-12-20T05:05:00.100Z,2.20
2022-12-20T05:13:09.608Z,2.03
2022-12-20T05:15:46.558Z,2.30
2022-12-20T05:18:27.213Z,1.90
2022-12-20T05:21:43.456Z,1.87
2022-12-20T05:31:40.847Z,2.27
2022-12-20T05:34:23.916Z,2.00
2022-12-20T05:36:57.962Z,2.20
2022-12-20T05:39:29.557Z,2.20
2022-12-20T05:42:00.706Z,2.57
2022-12-20T05:44:45.590Z,3.03
2022-12-20T05:47:34.032Z,2.07
2022-12-20T05:53:11.866Z,2.20
2022-12-20T05:55:41.678Z,2.40
2022-12-20T05:58:13.472Z,2.43
2022-12-20T06:00:42.039Z,1.97
2022-12-20T06:03:14.218Z,1.87
2022-12-20T06:05:44.393Z,2.70
2022-12-20T06:08:14.953Z,3.07
2022-12-20T06:10:44.024Z,2.27
2022-12-20T06:13:13.249Z,2.37
2022-12-20T06:15:42.037Z,2.77
2022-12-20T06:18:11.694Z,2.80
2022-12-20T06:20:40.762Z,2.17
2022-12-20T06:23:09.864Z,2.63
2022-12-20T06:25:40.272Z,2.97
2022-12-20T06:28:08.901Z,2.30
2022-12-20T06:30:37.588Z,2.63
2022-12-20T06:33:06.607Z,3.20
2022-12-20T06:35:41.274Z,3.33
2022-12-20T06:38:10.936Z,3.30
2022-12-20T06:40:42.784Z,3.20
2022-12-20T06:43:11.269Z,2.90
2022-12-20T06:45:42.196Z,2.50
2022-12-20T06:48:12.931Z,2.70
2022-12-20T06:50:42.667Z,2.60
2022-12-20T06:53:11.131Z,2.53
2022-12-20T06:55:42.161Z,3.33
2022-12-20T06:58:10.150Z,2.70
2022-12-20T07:00:38.806Z,2.93
2022-12-20T07:03:07.429Z,3.20
2022-12-20T07:05:36.416Z,3.00
2022-12-20T07:08:05.854Z,3.03
2022-12-20T07:10:36.109Z,2.57
2022-12-20T07:13:05.750Z,2.63
2022-12-20T07:15:34.232Z,3.03
2022-12-20T07:18:03.313Z,2.67
2022-12-20T07:20:31.981Z,3.00
2022-12-20T07:23:01.012Z,3.33
2022-12-20T07:25:29.462Z,2.97
2022-12-20T07:27:58.508Z,2.97
2022-12-20T07:30:28.786Z,4.00
2022-12-20T07:32:57.201Z,2.93
2022-12-20T07:35:26.801Z,2.50
2022-12-20T07:37:55.291Z,3.00
2022-12-20T07:40:24.311Z,3.20
2022-12-20T07:42:53.044Z,3.20
2022-12-20T07:45:21.418Z,3.87
2022-12-20T07:47:51.327Z,3.20
2022-12-20T07:50:20.119Z,2.60
2022-12-20T07:52:49.636Z,3.00
2022-12-20T07:55:18.864Z,3.07
2022-12-20T07:57:50.784Z,3.00
2022-12-20T08:00:20.236Z,3.07
2022-12-20T08:02:55.371Z,3.37
2022-12-20T08:05:24.828Z,4.57
2022-12-20T08:07:59.341Z,3.47
2022-12-20T08:10:30.822Z,4.03
2022-12-20T08:13:00.570Z,4.10
2022-12-20T08:15:30.654Z,3.60
2022-12-20T08:18:00.701Z,3.80
2022-12-20T08:20:29.406Z,3.77
2022-12-20T08:22:57.898Z,4.57
2022-12-20T08:25:27.489Z,3.77
2022-12-20T08:27:56.578Z,4.63
2022-12-20T08:30:24.867Z,3.90
2022-12-20T08:32:53.451Z,3.87
2022-12-20T08:35:23.696Z,3.90
2022-12-20T08:37:53.258Z,3.87
2022-12-20T08:40:22.199Z,3.60
2022-12-20T08:42:50.476Z,4.20
2022-12-20T08:45:19.402Z,3.53
2022-12-20T08:47:47.895Z,3.57
2022-12-20T08:50:16.694Z,3.50
2022-12-20T08:52:47.795Z,3.87
2022-12-20T08:55:16.088Z,3.30
2022-12-20T08:57:44.184Z,3.70
2022-12-20T09:00:13.648Z,4.40
2022-12-20T09:02:42.973Z,4.13
2022-12-20T09:05:11.700Z,3.80
2022-12-20T09:07:39.836Z,3.47
2022-12-20T09:10:11.409Z,3.87
2022-12-20T09:12:40.179Z,3.53
2022-12-20T09:15:09.916Z,4.10
2022-12-20T09:17:38.917Z,3.73
2022-12-20T09:20:08.604Z,3.93
2022-12-20T09:22:40.146Z,3.90
2022-12-20T09:25:10.861Z,3.77
2022-12-20T09:27:40.106Z,4.27
2022-12-20T09:30:10.403Z,4.57
2022-12-20T09:32:38.769Z,4.20
2022-12-20T09:35:07.567Z,4.53
2022-12-20T09:37:35.994Z,4.87
2022-12-20T09:40:04.653Z,5.03
2022-12-20T09:42:34.400Z,4.43
2022-12-20T09:45:07.396Z,4.60
2022-12-20T09:47:37.369Z,4.73
2022-12-20T09:50:09.010Z,5.17
2022-12-20T09:52:52.057Z,5.57
2022-12-20T09:55:28.098Z,4.57
2022-12-20T09:58:16.697Z,4.83
2022-12-20T10:00:53.505Z,5.03
2022-12-20T10:03:24.929Z,4.83
2022-12-20T10:05:55.709Z,5.03
2022-12-20T10:08:41.802Z,5.57
2022-12-20T10:11:15.050Z,6.40
2022-12-20T10:14:00.406Z,5.57
2022-12-20T10:16:40.355Z,5.70
2022-12-20T10:19:23.364Z,5.60
2022-12-20T10:22:01.524Z,6.03
2022-12-20T10:24:32.558Z,4.93
2022-12-20T10:27:12.817Z,5.67
2022-12-20T10:29:57.496Z,5.53
2022-12-20T10:32:30.367Z,5.97
2022-12-20T10:38:07.985Z,4.63
2022-12-20T10:41:19.569Z,4.33
2022-12-20T10:43:29.510Z,4.50
2022-12-20T10:46:02.564Z,4.37
2022-12-20T10:48:34.542Z,4.30
2022-12-20T10:51:09.440Z,4.60
2022-12-20T10:53:55.015Z,4.57
2022-12-20T10:56:25.081Z,3.87
2022-12-20T10:58:57.748Z,3.73
2022-12-20T11:01:32.593Z,4.23
2022-12-20T11:04:05.796Z,3.87
2022-12-20T11:06:45.730Z,3.90
2022-12-20T11:09:26.396Z,4.07
2022-12-20T11:12:08.503Z,3.80
2022-12-20T11:14:48.750Z,4.23
2022-12-20T11:18:11.529Z,4.13
2022-12-20T11:21:21.620Z,4.47
2022-12-20T11:24:55.128Z,4.23
2022-12-20T11:31:18.438Z,3.93
2022-12-20T11:34:31.096Z,3.97
2022-12-20T11:37:35.804Z,4.20
2022-12-20T11:40:44.797Z,4.60
2022-12-20T11:44:23.436Z,4.83
2022-12-20T11:47:12.950Z,4.03
2022-12-20T11:50:35.952Z,4.27
2022-12-20T11:53:53.780Z,4.17
2022-12-20T11:56:57.485Z,4.53
2022-12-20T12:03:16.816Z,4.97
2022-12-20T12:10:22.478Z,4.57
2022-12-20T12:16:06.728Z,4.90
2022-12-20T12:39:47.078Z,4.73
2022-12-20T12:42:57.393Z,4.40
2022-12-20T12:45:39.333Z,4.60
2022-12-20T12:48:19.299Z,4.43
2022-12-20T12:50:52.957Z,4.73
2022-12-20T12:53:26.116Z,4.47
2022-12-20T12:56:19.225Z,4.13
2022-12-20T13:04:33.470Z,4.57
2022-12-20T13:07:05.790Z,4.47
2022-12-20T13:16:09.794Z,4.70
2022-12-20T13:31:38.574Z,5.23
2022-12-20T14:10:18.271Z,5.13
2022-12-20T14:16:43.919Z,5.13
2022-12-20T14:19:17.123Z,5.63
2022-12-20T14:21:51.764Z,5.40
2022-12-20T14:34:52.886Z,7.17
2022-12-20T14:39:49.426Z,6.07
2022-12-20T14:45:47.557Z,6.03
2022-12-20T14:49:16.621Z,5.97
2022-12-20T14:59:53.600Z,6.30
2022-12-20T15:28:27.124Z,8.33
2022-12-20T15:31:20.396Z,7.77
2022-12-20T15:34:03.186Z,7.87
2022-12-20T15:36:51.985Z,7.43
2022-12-20T15:39:58.280Z,7.67
2022-12-20T15:42:38.040Z,8.20
2022-12-20T15:45:12.656Z,7.10
2022-12-20T15:48:12.041Z,7.43
2022-12-20T15:51:15.303Z,8.00
2022-12-20T15:54:25.854Z,7.37
2022-12-20T15:57:03.441Z,7.43
2022-12-20T16:03:27.761Z,10.50
2022-12-20T16:17:31.368Z,7.30
2022-12-20T16:20:13.060Z,8.00
2022-12-20T16:22:53.386Z,7.33
2022-12-20T16:25:43.284Z,8.30
2022-12-20T16:28:23.889Z,7.97
2022-12-20T16:31:06.652Z,7.30
2022-12-20T16:33:49.816Z,7.57
2022-12-20T16:36:21.815Z,7.33
2022-12-20T16:38:57.852Z,8.17
2022-12-20T16:41:31.352Z,8.33
2022-12-20T16:44:07.668Z,8.53
2022-12-20T16:46:39.092Z,8.70
2022-12-20T16:49:20.377Z,8.93
2022-12-20T16:54:46.245Z,7.70
2022-12-20T17:14:01.583Z,9.60
2022-12-20T17:16:31.909Z,9.40
2022-12-20T17:19:02.009Z,8.63
2022-12-20T17:24:24.999Z,9.07
2022-12-20T17:26:56.255Z,9.00
2022-12-20T17:29:27.375Z,7.90
2022-12-20T17:31:57.696Z,9.87
2022-12-20T17:34:28.744Z,12.07
2022-12-20T17:36:58.538Z,11.43
2022-12-20T17:39:30.470Z,10.87
2022-12-20T17:42:15.918Z,11.40
2022-12-20T17:44:46.256Z,10.73
2022-12-20T17:47:17.437Z,10.53
2022-12-20T17:49:49.237Z,10.43
2022-12-20T17:52:18.676Z,10.57
2022-12-20T17:54:50.195Z,10.33
2022-12-20T17:57:27.577Z,10.70
2022-12-20T18:00:00.904Z,9.67
2022-12-20T18:02:31.794Z,11.37
2022-12-20T18:05:03.763Z,11.30
2022-12-20T18:07:43.711Z,11.30
2022-12-20T18:10:29.732Z,11.70
2022-12-20T18:12:59.046Z,11.17
2022-12-20T18:15:29.454Z,11.60
2022-12-20T18:18:21.166Z,11.00
2022-12-20T18:20:49.926Z,10.23
2022-12-20T18:23:18.679Z,9.80
2022-12-20T18:25:47.741Z,10.70
2022-12-20T18:28:18.493Z,9.80
2022-12-20T18:31:04.984Z,10.33
2022-12-20T18:33:36.249Z,10.67
2022-12-20T18:36:05.712Z,12.03
2022-12-20T18:38:52.732Z,10.73
2022-12-20T18:41:23.977Z,10.93
2022-12-20T18:43:53.303Z,11.57
2022-12-20T18:46:24.078Z,10.27
2022-12-20T18:48:57.198Z,11.77
2022-12-20T18:51:43.987Z,10.90
2022-12-20T18:54:28.385Z,12.03
2022-12-20T19:02:58.948Z,11.53
2022-12-20T19:05:33.266Z,13.17
2022-12-20T19:08:01.658Z,12.40
2022-12-20T19:10:34.134Z,12.23
2022-12-20T19:13:06.026Z,14.23
2022-12-20T19:15:34.623Z,13.73
2022-12-20T19:18:03.354Z,12.73
2022-12-20T19:23:28.231Z,14.80
2022-12-20T19:26:04.576Z,14.67
2022-12-20T19:28:34.759Z,14.53
2022-12-20T19:31:08.400Z,13.40
2022-12-20T19:33:45.808Z,13.40
2022-12-20T19:36:21.061Z,14.07
2022-12-20T19:38:51.566Z,13.30
2022-12-20T19:44:42.716Z,13.77
2022-12-20T19:47:12.042Z,15.87
2022-12-20T19:49:45.344Z,14.77
2022-12-20T19:52:23.283Z,14.73
2022-12-20T19:54:57.010Z,15.80
2022-12-20T20:00:20.881Z,14.97
2022-12-20T20:02:53.421Z,17.07
2022-12-20T20:05:37.412Z,15.83
2022-12-20T20:08:13.038Z,16.70
2022-12-20T20:10:56.668Z,15.17
2022-12-20T20:13:33.406Z,16.60
2022-12-20T20:16:04.199Z,16.50
2022-12-20T20:18:36.565Z,16.53
2022-12-20T20:21:11.246Z,16.73
2022-12-20T20:23:49.525Z,17.47
2022-12-20T20:26:20.981Z,16.83
2022-12-20T20:28:55.515Z,16.67
2022-12-20T20:31:24.728Z,17.20
2022-12-20T20:33:53.489Z,16.53
2022-12-20T20:36:24.783Z,16.13
2022-12-20T20:38:56.962Z,17.17
2022-12-20T20:41:29.887Z,16.53
2022-12-20T20:43:58.743Z,16.93
2022-12-20T20:46:28.538Z,16.67
2022-12-20T20:49:00.018Z,16.73
2022-12-20T20:51:39.111Z,15.53
2022-12-20T20:54:10.991Z,16.00
2022-12-20T20:56:40.717Z,15.47
2022-12-20T20:59:17.016Z,15.13
2022-12-20T21:01:46.684Z,14.20
2022-12-20T21:04:15.105Z,13.80
2022-12-20T21:06:44.092Z,14.93
2022-12-20T21:11:57.967Z,15.53
2022-12-20T21:15:10.647Z,13.30
2022-12-20T21:19:56.671Z,12.67
2022-12-20T21:22:26.578Z,14.90
2022-12-20T21:24:57.742Z,13.83
2022-12-20T21:27:29.166Z,12.10
2022-12-20T21:30:06.635Z,12.90
2022-12-20T21:32:38.972Z,13.73
2022-12-20T21:35:09.095Z,14.23
2022-12-20T21:37:54.176Z,13.17
2022-12-20T21:43:20.403Z,13.53
2022-12-20T21:45:53.079Z,13.93
2022-12-20T21:51:25.084Z,12.97
2022-12-20T21:53:59.689Z,13.93
2022-12-20T21:59:19.992Z,14.23
2022-12-20T22:02:02.885Z,12.73
2022-12-20T22:18:25.906Z,14.53
2022-12-20T22:21:14.711Z,14.37
2022-12-20T22:23:46.132Z,23.77
2022-12-20T22:26:17.763Z,14.17
2022-12-20T22:31:55.190Z,14.33
2022-12-20T22:37:17.410Z,14.60
2022-12-20T22:39:54.798Z,14.27
2022-12-20T22:42:45.685Z,14.47
2022-12-20T22:45:23.772Z,14.10
2022-12-20T22:48:06.630Z,15.53
2022-12-20T22:50:46.849Z,15.83
2022-12-20T22:53:19.936Z,16.67
2022-12-20T22:55:56.829Z,15.50
2022-12-20T22:58:28.064Z,15.37
2022-12-20T23:01:00.746Z,35.07
2022-12-20T23:03:33.755Z,16.10
2022-12-20T23:06:12.045Z,20.17
2022-12-20T23:08:56.531Z,13.33
2022-12-20T23:11:44.883Z,13.80
2022-12-20T23:14:36.312Z,13.43
2022-12-20T23:17:06.462Z,13.63
2022-12-20T23:19:57.268Z,14.47
2022-12-20T23:22:40.623Z,13.07
2022-12-20T23:25:14.181Z,13.63
2022-12-20T23:27:47.131Z,13.63
2022-12-20T23:33:03.196Z,16.53
2022-12-20T23:35:35.214Z,14.10
2022-12-20T23:38:05.853Z,13.77
2022-12-20T23:40:34.443Z,14.53
2022-12-20T23:43:03.133Z,15.70
2022-12-20T23:45:32.269Z,13.90
2022-12-20T23:48:00.587Z,14.20
2022-12-20T23:50:29.448Z,14.00
2022-12-20T23:52:59.458Z,13.60
2022-12-20T23:55:31.892Z,14.10
2022-12-20T23:58:00.377Z,11.50
